Flight Track Log - Related Links

Times and Time Zones

All times are in EST time to prevent confusion due to time zone crossing. See the GJS3618 flight status page for this flight to view local times or setup timezone preferences in your user account.

Time Position Orientation Groundspeed Altitude Reporting Facility
EST Latitude Longitude Course Direction KTS MPH feet Rate Location/Type
Sat 09:04:24 AM 38.9500 -77.5167 234° Southwest 162 186 1,700  Level Potomac TRACON
Sat 09:05:24 AM 38.9167 -77.5333 201° Southwest 188 216 3,600 2,000 Climbing Potomac TRACON
Sat 09:06:18 AM 38.8500 -77.5667 201° Southwest 236 272 5,500 1,789 Climbing Potomac TRACON
Sat 09:07:18 AM 38.7833 -77.6000 201° Southwest 260 299 7,000 2,231 Climbing Potomac TRACON
Sat 09:08:00 AM 38.5063 -77.7119 210° Southwest  Level FlightAware Approximate
Sat 09:08:19 AM 38.7167 -77.6333 201° Southwest 259 298 10,000  Level Potomac TRACON
Sat 09:09:00 AM 38.4528 -77.8077 234° Southwest  Level FlightAware Approximate
Sat 09:09:03 AM 38.6706 -77.6469 193° South 263 303 11,400  Level Washington Center
Sat 09:10:01 AM 38.5992 -77.6850 203° Southwest 289 333 12,800 2,034 Climbing Washington Center
Sat 09:11:01 AM 38.5150 -77.7278 202° Southwest 305 351 15,400 2,331 Climbing Washington Center
Sat 09:12:02 AM 38.4633 -77.8136 232° Southwest 310 357 17,500 1,869 Climbing Washington Center
Sat 09:13:03 AM 38.4094 -77.9103 235° Southwest 303 349 19,200 1,714 Climbing Washington Center
Sat 09:14:01 AM 38.3617 -78.0067 238° Southwest 311 358 20,900 1,729 Climbing Washington Center
Sat 09:15:01 AM 38.3097 -78.1028 235° Southwest 329 379 22,600 1,488 Climbing Washington Center
Sat 09:16:02 AM 38.2575 -78.2042 237° Southwest 336 387 23,900 1,388 Climbing Washington Center
Sat 09:17:02 AM 38.2031 -78.3053 236° Southwest 346 398 25,400 1,438 Climbing Washington Center
Sat 09:18:03 AM 38.1506 -78.4064 237° Southwest 346 398 26,800 1,180 Climbing Washington Center
Sat 09:19:04 AM 38.1044 -78.5131 241° Southwest 346 398 27,800 966 Climbing Washington Center
Sat 09:20:01 AM 38.0725 -78.6197 249° West 346 398 28,700 966 Climbing Washington Center
Sat 09:21:02 AM 38.0275 -78.7497 246° West 368 423 29,700 992 Climbing Washington Center
Sat 09:22:02 AM 37.9867 -78.8694 247° West 374 430 30,700 950 Climbing Washington Center
Sat 09:23:02 AM 37.9458 -78.9886 247° West 374 430 31,600 992 Climbing Washington Center
Sat 09:24:03 AM 37.9028 -79.1053 245° Southwest 374 430 32,700 1,059 Climbing Washington Center
Sat 09:25:01 AM 37.8417 -79.1944 229° Southwest 369 425 33,700 908 Climbing Washington Center
Sat 09:26:02 AM 37.7744 -79.2858 227° Southwest 369 425 34,500 885 Climbing Washington Center
Sat 09:27:03 AM 37.6958 -79.3922 227° Southwest 374 430 35,500 908 Climbing Washington Center
Sat 09:28:01 AM 37.6283 -79.4858 228° Southwest 374 430 36,300 814 Climbing Washington Center
Sat 09:29:01 AM 37.5606 -79.5792 228° Southwest 369 425 37,100 694 Climbing Washington Center
Sat 09:30:02 AM 37.4925 -79.6753 228° Southwest 369 425 37,700 260 Climbing Washington Center
Sat 09:32:29 AM 37.3231 -79.9025 227° Southwest 369 425 38,000 87 Climbing Atlanta Center
Sat 09:33:29 AM 37.2553 -79.9947 227° Southwest 363 418 38,000  Level Atlanta Center
Sat 09:34:29 AM 37.1933 -80.0761 226° Southwest 363 418 38,000  Level Atlanta Center
Sat 09:35:29 AM 37.1272 -80.1653 227° Southwest 358 412 38,000  Level Atlanta Center
Sat 09:36:29 AM 37.0614 -80.2544 227° Southwest 358 412 38,000  Level Atlanta Center
Sat 09:37:29 AM 36.9953 -80.3433 227° Southwest 353 406 38,000  Level Atlanta Center
Sat 09:38:29 AM 36.9211 -80.4403 226° Southwest 353 406 38,000  Level Atlanta Center
Sat 09:39:29 AM 36.8547 -80.5289 227° Southwest 353 406 38,000  Level Atlanta Center
Sat 09:40:29 AM 36.7864 -80.6200 227° Southwest 353 406 38,000  Level Atlanta Center
Sat 09:41:29 AM 36.7261 -80.7056 229° Southwest 353 406 38,000  Level Atlanta Center
Sat 09:42:29 AM 36.6597 -80.7961 228° Southwest 348 400 38,000  Level Atlanta Center
Sat 09:43:29 AM 36.5914 -80.8844 226° Southwest 354 407 38,000  Level Atlanta Center
Sat 09:44:29 AM 36.5228 -80.9750 227° Southwest 354 407 38,000  Level Atlanta Center
Sat 09:45:29 AM 36.4561 -81.0653 227° Southwest 354 407 38,000  Level Atlanta Center
Sat 09:46:29 AM 36.3872 -81.1528 226° Southwest 354 407 38,000  Level Atlanta Center
Sat 09:47:29 AM 36.3267 -81.2375 228° Southwest 354 407 38,000  Level Atlanta Center
Sat 09:48:29 AM 36.2578 -81.3250 226° Southwest 354 407 38,000  Level Atlanta Center
Sat 09:49:29 AM 36.1886 -81.4147 226° Southwest 354 407 38,000  Level Atlanta Center
Sat 09:50:29 AM 36.1219 -81.5067 228° Southwest 354 407 38,000  Level Atlanta Center
Sat 09:51:29 AM 36.0506 -81.5939 225° Southwest 359 413 38,000 -50 Level Atlanta Center
Sat 09:52:29 AM 35.9817 -81.6883 228° Southwest 359 413 37,900 -550 Descending Atlanta Center
Sat 09:53:29 AM 35.9122 -81.7775 226° Southwest 359 413 36,900 -1,000 Descending Atlanta Center
Sat 09:54:29 AM 35.8431 -81.8664 226° Southwest 359 413 35,900 -950 Descending Atlanta Center
Sat 09:55:29 AM 35.7694 -81.9528 224° Southwest 352 405 35,000 -450 Descending Atlanta Center
Sat 09:56:29 AM 35.6936 -82.0392 223° Southwest 372 428 35,000  Level Atlanta Center
Sat 09:57:29 AM 35.6178 -82.1278 224° Southwest 372 428 35,000  Level Atlanta Center
Sat 09:58:29 AM 35.5419 -82.2189 224° Southwest 372 428 35,000 -550 Level Atlanta Center
Sat 09:59:29 AM 35.4639 -82.3047 222° Southwest 372 428 33,900 -1,150 Descending Atlanta Center
Sat 10:00:29 AM 35.3881 -82.3956 224° Southwest 377 434 32,700 -1,200 Descending Atlanta Center
Sat 10:01:29 AM 35.3078 -82.4836 222° Southwest 377 434 31,500 -1,200 Descending Atlanta Center
Sat 10:02:29 AM 35.2297 -82.5742 223° Southwest 382 440 30,300 -750 Descending Atlanta Center
Sat 10:03:29 AM 35.1492 -82.6594 221° Southwest 387 445 30,000 -150 Descending Atlanta Center
Sat 10:04:29 AM 35.0586 -82.7650 224° Southwest 392 451 30,000  Level Atlanta Center
Sat 10:05:29 AM 34.9761 -82.8575 223° Southwest 398 458 30,000 -200 Level Atlanta Center
Sat 10:06:29 AM 34.8872 -82.9500 220° Southwest 411 473 29,600 -1,050 Descending Atlanta Center
Sat 10:07:29 AM 34.8067 -83.0394 222° Southwest 410 472 27,900 -1,700 Descending Atlanta Center
Sat 10:08:29 AM 34.7281 -83.1339 225° Southwest 399 459 26,200 -1,700 Descending Atlanta Center
Sat 10:09:29 AM 34.6494 -83.2231 223° Southwest 394 453 24,500 -1,700 Descending Atlanta Center
Sat 10:10:29 AM 34.5683 -83.3072 221° Southwest 394 453 22,800 -1,650 Descending Atlanta Center
Sat 10:11:29 AM 34.4939 -83.3961 225° Southwest 386 444 21,200 -1,550 Descending Atlanta Center
Sat 10:12:29 AM 34.4150 -83.4797 221° Southwest 380 437 19,700 -1,400 Descending Atlanta Center
Sat 10:13:29 AM 34.3483 -83.5533 222° Southwest 373 429 18,400 -1,300 Descending Atlanta Center
Sat 10:14:29 AM 34.2758 -83.6342 223° Southwest 364 419 17,100 -1,450 Descending Atlanta Center
Sat 10:15:29 AM 34.2069 -83.7122 223° Southwest 351 404 15,500 -1,550 Descending Atlanta Center
Sat 10:16:29 AM 34.1406 -83.7853 222° Southwest 337 388 14,000 -800 Descending Atlanta Center
Sat 10:17:29 AM 34.0717 -83.8608 222° Southwest 337 388 13,900 -757 Descending Atlanta Center
Sat 10:18:12 AM 34.0167 -83.9333 228° Southwest 374 430 12,700 -1,107 Descending Atlanta TRACON
Sat 10:19:12 AM 33.9500 -84.0000 220° Southwest 320 368 12,000 -350 Descending Atlanta TRACON
Sat 10:20:12 AM 33.8833 -84.0833 226° Southwest 325 374 12,000  Level Atlanta TRACON
Sat 10:21:06 AM 33.8333 -84.1500 228° Southwest 329 379 12,000  Level Atlanta TRACON
Sat 10:22:12 AM 33.7667 -84.2333 226° Southwest 274 315 12,000 -50 Level Atlanta TRACON
Sat 10:23:06 AM 33.7333 -84.3000 239° Southwest 272 313 11,900 -950 Descending Atlanta TRACON
Sat 10:24:12 AM 33.7333 -84.4000 270° West 272 313 10,100 -1,762 Descending Atlanta TRACON
Sat 10:25:12 AM 33.7333 -84.4833 270° West 269 310 8,200 -1,850 Descending Atlanta TRACON
Sat 10:26:12 AM 33.7333 -84.5667 270° West 260 299 6,400 -1,600 Descending Atlanta TRACON
Sat 10:27:12 AM 33.7333 -84.6667 270° West 257 296 5,000 -700 Descending Atlanta TRACON
Sat 10:28:12 AM 33.7333 -84.7500 270° West 253 291 5,000  Level Atlanta TRACON
Sat 10:29:12 AM 33.6833 -84.7500 180° South 211 243 5,000  Level Atlanta TRACON
Sat 10:30:12 AM 33.6500 -84.6833 121° Southeast 226 260 5,000 -421 Level Atlanta TRACON
Sat 10:31:06 AM 33.6500 -84.6167 90° East 221 254 4,200 -1,050 Descending Atlanta TRACON
Sat 10:32:12 AM 33.6500 -84.5500 90° East 183 211 2,900 -1,000 Descending Atlanta TRACON
Sat 10:33:18 AM 33.6500 -84.5000 90° East 141 162 2,000 -762 Descending Atlanta TRACON
Sat 10:34:18 AM 33.6500 -84.4500 90° East 126 145 1,300 -700 Descending Atlanta TRACON

Login

Don't have an account? Register now (free) for customized features, flight alerts, and more!